Time;durP1;ratioP1;P1;durP2;ratioP2;P2;SDS_P1;SDS_P2;PMS_P1;PMS_P2;Temp;Humidity;BMP_temperature;BMP_pressure;BME280_temperature;BME280_humidity;BME280_pressure;Samples;Min_cycle;Max_cycle;Signal;HPM_P1;HPM_P2
2021/05/26 00:00:50;;;;;;;;;;;22.70;40.50;;;;;;1577862;74;802;-66
2021/05/26 00:02:51;;;;;;;;;;;22.70;40.50;;;;;;1588795;73;820;-64
2021/05/26 00:04:53;;;;;;;;;;;22.60;40.20;;;;;;1581366;74;726;-64
2021/05/26 00:06:55;;;;;;;;;;;22.70;40.30;;;;;;1589099;74;1927;-64
2021/05/26 00:08:57;;;;;;;;;;;22.60;40.20;;;;;;1588282;73;1170;-64
2021/05/26 00:10:59;;;;;;;;;;;22.70;40.30;;;;;;1592367;73;787;-65
2021/05/26 00:13:01;;;;;;;;;;;22.70;40.30;;;;;;1595864;73;821;-65
2021/05/26 00:15:03;;;;;;;;;;;22.70;40.20;;;;;;1590863;73;713;-64
2021/05/26 00:17:05;;;;;;;;;;;22.70;40.00;;;;;;1577629;74;838;-64
2021/05/26 00:19:08;;;;;;;;;;;22.70;40.00;;;;;;1592736;74;1168;-64
2021/05/26 00:21:10;;;;;;;;;;;22.70;40.00;;;;;;1591402;74;659;-64
2021/05/26 00:23:12;;;;;;;;;;;22.70;39.90;;;;;;1581687;74;727;-64
2021/05/26 00:25:14;;;;;;;;;;;22.70;39.80;;;;;;1588614;74;697;-66
2021/05/26 00:27:16;;;;;;;;;;;22.70;39.80;;;;;;1575598;74;1930;-63
2021/05/26 00:29:18;;;;;;;;;;;22.70;39.80;;;;;;1581159;74;1160;-64
2021/05/26 00:31:21;;;;;;;;;;;22.70;39.80;;;;;;1589758;74;757;-64
2021/05/26 00:33:23;;;;;;;;;;;22.70;39.90;;;;;;1586289;74;796;-63
2021/05/26 00:35:24;;;;;;;;;;;22.60;39.80;;;;;;1580903;74;820;-64
2021/05/26 00:37:26;;;;;;;;;;;22.60;39.90;;;;;;1588183;74;726;-63
2021/05/26 00:39:28;;;;;;;;;;;22.70;40.00;;;;;;1596969;73;1120;-65
2021/05/26 00:41:30;;;;;;;;;;;22.60;39.70;;;;;;1592512;74;788;-65
2021/05/26 00:43:32;;;;;;;;;;;22.70;39.80;;;;;;1588688;74;801;-65
2021/05/26 00:45:35;;;;;;;;;;;22.70;39.80;;;;;;1590285;73;748;-66
2021/05/26 00:47:38;;;;;;;;;;;22.70;39.80;;;;;;1585349;74;1942;-64
2021/05/26 00:49:40;;;;;;;;;;;22.60;39.80;;;;;;1589755;73;1141;-64
2021/05/26 00:51:42;;;;;;;;;;;22.70;39.90;;;;;;1585190;74;828;-62
2021/05/26 00:53:44;;;;;;;;;;;22.60;39.90;;;;;;1595664;73;687;-65
2021/05/26 00:55:46;;;;;;;;;;;22.70;40.00;;;;;;1589017;73;964;-65
2021/05/26 00:57:48;;;;;;;;;;;22.70;40.00;;;;;;1592323;73;795;-65
2021/05/26 00:59:50;;;;;;;;;;;22.70;40.00;;;;;;1584881;74;1182;-64
2021/05/26 01:01:52;;;;;;;;;;;22.70;40.00;;;;;;1594150;73;805;-64
2021/05/26 01:03:55;;;;;;;;;;;22.80;40.00;;;;;;1590718;74;771;-64
2021/05/26 01:05:57;;;;;;;;;;;22.70;39.90;;;;;;1587778;73;1675;-65
2021/05/26 01:07:59;;;;;;;;;;;22.70;40.00;;;;;;1588181;73;1946;-64
2021/05/26 01:10:01;;;;;;;;;;;22.70;40.00;;;;;;1594685;73;1078;-63
2021/05/26 01:12:04;;;;;;;;;;;22.70;40.10;;;;;;1587830;73;811;-63
2021/05/26 01:14:06;;;;;;;;;;;22.70;40.20;;;;;;1595099;74;776;-64
2021/05/26 01:16:08;;;;;;;;;;;22.60;40.20;;;;;;1596467;73;954;-63
2021/05/26 01:18:20;;;;;;;;;;;22.60;40.20;;;;;;1597774;74;1128;-63
2021/05/26 01:20:23;;;;;;;;;;;22.60;40.20;;;;;;1584371;74;713;-67
2021/05/26 01:22:25;;;;;;;;;;;22.60;40.20;;;;;;1592382;73;767;-64
2021/05/26 01:24:27;;;;;;;;;;;22.60;40.20;;;;;;1586406;74;835;-64
2021/05/26 01:26:29;;;;;;;;;;;22.60;40.20;;;;;;1596897;73;826;-66
2021/05/26 01:28:31;;;;;;;;;;;22.60;40.20;;;;;;1605914;73;1968;-64
2021/05/26 01:30:33;;;;;;;;;;;22.60;40.20;;;;;;1593735;74;784;-64
2021/05/26 01:32:39;;;;;;;;;;;22.60;40.20;;;;;;1586269;74;758;-64
2021/05/26 01:34:41;;;;;;;;;;;22.60;40.20;;;;;;1594095;74;797;-66
2021/05/26 01:36:43;;;;;;;;;;;22.60;40.10;;;;;;1588411;74;795;-63
2021/05/26 01:38:45;;;;;;;;;;;22.60;40.10;;;;;;1589347;74;1126;-64
2021/05/26 01:40:47;;;;;;;;;;;22.60;40.10;;;;;;1583703;74;697;-63
2021/05/26 01:42:49;;;;;;;;;;;22.60;40.00;;;;;;1588615;73;827;-64
2021/05/26 01:44:50;;;;;;;;;;;22.60;40.10;;;;;;1597891;74;699;-64
2021/05/26 01:46:52;;;;;;;;;;;22.60;40.00;;;;;;1596156;74;805;-64
2021/05/26 01:48:54;;;;;;;;;;;22.70;40.00;;;;;;1605377;73;1941;-63
2021/05/26 01:50:56;;;;;;;;;;;22.70;40.00;;;;;;1592064;74;928;-65
2021/05/26 01:52:59;;;;;;;;;;;22.70;40.10;;;;;;1592175;74;793;-63
2021/05/26 01:55:01;;;;;;;;;;;22.60;39.90;;;;;;1588391;74;847;-63
2021/05/26 01:57:03;;;;;;;;;;;22.60;40.00;;;;;;1575550;74;720;-64
2021/05/26 01:59:05;;;;;;;;;;;22.60;39.90;;;;;;1589556;74;1190;-65
2021/05/26 02:01:07;;;;;;;;;;;22.60;39.80;;;;;;1592356;74;582;-64
2021/05/26 02:03:09;;;;;;;;;;;22.60;39.80;;;;;;1585740;74;673;-64
2021/05/26 02:05:11;;;;;;;;;;;22.70;39.90;;;;;;1591423;74;690;-65
2021/05/26 02:07:14;;;;;;;;;;;22.60;39.70;;;;;;1580664;74;1938;-65
2021/05/26 02:09:15;;;;;;;;;;;22.60;39.70;;;;;;1577849;74;1099;-63
2021/05/26 02:13:37;;;;;;;;;;;22.70;39.70;;;;;;1583314;74;948;-67
2021/05/26 02:15:39;;;;;;;;;;;22.60;39.60;;;;;;1591867;74;787;-67
2021/05/26 02:17:41;;;;;;;;;;;22.60;39.70;;;;;;1596508;73;731;-65
2021/05/26 02:19:43;;;;;;;;;;;22.60;39.60;;;;;;1595133;74;1067;-66
2021/05/26 02:21:45;;;;;;;;;;;22.60;39.70;;;;;;1585985;74;726;-66
2021/05/26 02:23:47;;;;;;;;;;;22.70;39.80;;;;;;1597764;74;988;-67
2021/05/26 02:25:49;;;;;;;;;;;22.70;39.70;;;;;;1592469;74;696;-67
2021/05/26 02:27:50;;;;;;;;;;;22.70;39.80;;;;;;1593300;74;1932;-68
2021/05/26 02:29:52;;;;;;;;;;;22.70;39.80;;;;;;1586039;74;1050;-68
2021/05/26 02:31:54;;;;;;;;;;;22.70;39.70;;;;;;1590533;74;735;-65
2021/05/26 02:33:56;;;;;;;;;;;22.70;39.70;;;;;;1591551;74;783;-65
2021/05/26 02:35:58;;;;;;;;;;;22.80;39.70;;;;;;1595896;74;770;-65
2021/05/26 02:38:00;;;;;;;;;;;22.70;39.60;;;;;;1593274;74;843;-65
2021/05/26 02:40:02;;;;;;;;;;;22.70;39.50;;;;;;1567981;72;219327;-60
2021/05/26 02:42:04;;;;;;;;;;;22.80;39.50;;;;;;1540992;76;696;-59
2021/05/26 02:44:06;;;;;;;;;;;22.80;39.50;;;;;;1540373;75;660;-58
2021/05/26 02:46:08;;;;;;;;;;;22.80;39.40;;;;;;1534222;76;689;-59
2021/05/26 02:48:10;;;;;;;;;;;22.80;39.40;;;;;;1527889;76;1946;-60
2021/05/26 02:50:17;;;;;;;;;;;22.80;39.60;;;;;;1536893;76;1159;-59
2021/05/26 02:52:16;;;;;;;;;;;22.60;39.30;;;;;;1537215;75;1045;-60
2021/05/26 02:54:17;;;;;;;;;;;22.70;39.50;;;;;;1512820;76;691;-60
2021/05/26 02:56:19;;;;;;;;;;;22.80;39.40;;;;;;1519812;76;780;-60
2021/05/26 02:58:21;;;;;;;;;;;22.70;39.20;;;;;;1533519;76;794;-59
2021/05/26 03:00:23;;;;;;;;;;;22.80;39.30;;;;;;1528158;76;1167;-60
2021/05/26 03:02:25;;;;;;;;;;;22.70;39.30;;;;;;1533425;76;763;-60
2021/05/26 03:04:27;;;;;;;;;;;22.80;39.20;;;;;;1538281;76;736;-60
2021/05/26 03:06:29;;;;;;;;;;;22.80;39.10;;;;;;1538293;76;683;-59
2021/05/26 03:08:31;;;;;;;;;;;22.80;39.00;;;;;;1542270;76;1915;-60
2021/05/26 03:10:33;;;;;;;;;;;22.80;39.10;;;;;;1545881;76;1146;-59
2021/05/26 03:12:34;;;;;;;;;;;22.70;39.00;;;;;;1540404;76;751;-57
2021/05/26 03:14:36;;;;;;;;;;;22.70;39.00;;;;;;1544525;76;758;-57
2021/05/26 03:16:38;;;;;;;;;;;22.70;38.90;;;;;;1536105;76;807;-57
2021/05/26 03:18:41;;;;;;;;;;;22.70;39.00;;;;;;1539165;76;713;-57
2021/05/26 03:20:42;;;;;;;;;;;22.70;39.10;;;;;;1540225;76;1174;-57
2021/05/26 03:22:44;;;;;;;;;;;22.70;39.00;;;;;;1544045;76;775;-58
2021/05/26 03:24:46;;;;;;;;;;;22.70;38.90;;;;;;1541942;76;759;-58
2021/05/26 03:26:48;;;;;;;;;;;22.80;38.90;;;;;;1534806;76;693;-58
2021/05/26 03:28:50;;;;;;;;;;;22.70;38.90;;;;;;1530145;76;1945;-57
2021/05/26 03:30:52;;;;;;;;;;;22.70;38.90;;;;;;1535149;76;1149;-56
2021/05/26 03:32:54;;;;;;;;;;;22.60;38.80;;;;;;1532501;76;702;-56
2021/05/26 03:34:55;;;;;;;;;;;22.60;38.80;;;;;;1531244;76;785;-57
2021/05/26 03:36:57;;;;;;;;;;;22.60;38.80;;;;;;1527168;76;913;-56
2021/05/26 03:38:59;;;;;;;;;;;22.60;39.00;;;;;;1530537;76;725;-57
2021/05/26 03:41:01;;;;;;;;;;;22.60;38.90;;;;;;1531094;76;1153;-55
2021/05/26 03:43:03;;;;;;;;;;;22.60;39.00;;;;;;1531762;76;581;-57
2021/05/26 03:45:07;;;;;;;;;;;22.60;39.20;;;;;;1548517;75;753;-56
2021/05/26 03:47:08;;;;;;;;;;;22.60;39.10;;;;;;1527337;76;656;-57
2021/05/26 03:49:10;;;;;;;;;;;22.60;39.20;;;;;;1532840;76;1952;-57
2021/05/26 03:51:12;;;;;;;;;;;22.60;39.20;;;;;;1531035;76;1087;-56
2021/05/26 03:53:14;;;;;;;;;;;22.60;39.30;;;;;;1522955;76;793;-58
2021/05/26 03:55:17;;;;;;;;;;;22.70;39.40;;;;;;1549561;75;752;-57
2021/05/26 03:57:19;;;;;;;;;;;22.60;39.30;;;;;;1550986;75;590;-58
2021/05/26 03:59:21;;;;;;;;;;;22.60;39.40;;;;;;1545660;75;750;-58
2021/05/26 04:01:23;;;;;;;;;;;22.60;39.40;;;;;;1549359;75;1178;-58
2021/05/26 04:03:25;;;;;;;;;;;22.60;39.50;;;;;;1547431;75;785;-57
2021/05/26 04:05:27;;;;;;;;;;;22.50;39.40;;;;;;1539093;75;897;-57
2021/05/26 04:07:28;;;;;;;;;;;22.60;39.40;;;;;;1545463;75;743;-58
2021/05/26 04:09:30;;;;;;;;;;;22.60;39.40;;;;;;1540515;76;1928;-57
2021/05/26 04:11:32;;;;;;;;;;;22.60;39.50;;;;;;1545738;76;1123;-58
2021/05/26 04:13:34;;;;;;;;;;;22.60;39.40;;;;;;1548655;75;806;-58
2021/05/26 04:15:36;;;;;;;;;;;22.60;39.40;;;;;;1558936;75;809;-58
2021/05/26 04:17:38;;;;;;;;;;;22.60;39.40;;;;;;1541218;76;830;-58
2021/05/26 04:19:40;;;;;;;;;;;22.50;39.40;;;;;;1553220;76;740;-58
2021/05/26 04:21:42;;;;;;;;;;;22.60;39.30;;;;;;1520882;77;1063;-58
2021/05/26 04:23:43;;;;;;;;;;;22.60;39.20;;;;;;1525409;77;676;-58
2021/05/26 04:25:50;;;;;;;;;;;22.60;39.10;;;;;;1537129;75;740;-57
2021/05/26 04:27:49;;;;;;;;;;;22.60;39.00;;;;;;1553135;75;1636;-57
2021/05/26 04:29:51;;;;;;;;;;;22.60;39.20;;;;;;1542314;75;1924;-58
2021/05/26 04:31:56;;;;;;;;;;;22.60;39.30;;;;;;1540806;75;1268;-59
2021/05/26 04:33:56;;;;;;;;;;;22.60;39.20;;;;;;1534379;75;1695;-58
2021/05/26 04:35:58;;;;;;;;;;;22.50;39.30;;;;;;1550105;75;774;-58
2021/05/26 04:38:01;;;;;;;;;;;22.60;39.30;;;;;;1545785;75;762;-57
2021/05/26 04:40:03;;;;;;;;;;;22.60;39.20;;;;;;1542009;75;1138;-58
2021/05/26 04:42:05;;;;;;;;;;;22.60;39.30;;;;;;1544853;75;699;-58
2021/05/26 04:44:07;;;;;;;;;;;22.60;39.40;;;;;;1545141;75;650;-58
2021/05/26 04:46:09;;;;;;;;;;;22.50;39.30;;;;;;1543942;75;667;-58
2021/05/26 04:48:11;;;;;;;;;;;22.50;39.30;;;;;;1543624;75;2124;-57
2021/05/26 04:50:13;;;;;;;;;;;22.50;39.30;;;;;;1544864;75;1115;-58
2021/05/26 04:52:15;;;;;;;;;;;22.50;39.30;;;;;;1546687;75;832;-56
2021/05/26 04:54:17;;;;;;;;;;;22.60;39.40;;;;;;1543954;75;793;-58
2021/05/26 04:56:18;;;;;;;;;;;22.50;39.30;;;;;;1541427;75;770;-58
2021/05/26 04:58:20;;;;;;;;;;;22.50;39.10;;;;;;1542489;75;898;-58
2021/05/26 05:00:22;;;;;;;;;;;22.60;39.10;;;;;;1537751;75;1166;-56
2021/05/26 05:02:24;;;;;;;;;;;22.60;39.10;;;;;;1544535;75;726;-58
2021/05/26 05:04:26;;;;;;;;;;;22.60;39.00;;;;;;1540737;75;753;-56
2021/05/26 05:06:28;;;;;;;;;;;22.60;38.90;;;;;;1543094;75;826;-57
2021/05/26 05:08:30;;;;;;;;;;;22.60;38.90;;;;;;1539415;75;1938;-57
2021/05/26 05:10:32;;;;;;;;;;;22.60;38.80;;;;;;1548265;75;1139;-58
2021/05/26 05:12:34;;;;;;;;;;;22.60;38.80;;;;;;1547601;75;742;-58
2021/05/26 05:14:35;;;;;;;;;;;22.60;38.80;;;;;;1542173;75;916;-57
2021/05/26 05:16:37;;;;;;;;;;;22.60;38.70;;;;;;1538165;75;774;-58
2021/05/26 05:18:39;;;;;;;;;;;22.60;39.00;;;;;;1542191;75;742;-58
2021/05/26 05:20:41;;;;;;;;;;;22.60;39.20;;;;;;1545526;75;1147;-58
2021/05/26 05:22:43;;;;;;;;;;;22.60;39.20;;;;;;1544024;75;720;-58
2021/05/26 05:24:45;;;;;;;;;;;22.60;39.10;;;;;;1547424;75;739;-57
2021/05/26 05:26:47;;;;;;;;;;;22.60;39.20;;;;;;1541216;75;697;-57
2021/05/26 05:28:48;;;;;;;;;;;22.60;39.30;;;;;;1544752;75;1935;-55
2021/05/26 05:30:50;;;;;;;;;;;22.60;39.40;;;;;;1542042;76;1131;-55
2021/05/26 05:32:52;;;;;;;;;;;22.60;39.30;;;;;;1557461;75;769;-56
2021/05/26 05:34:54;;;;;;;;;;;22.60;39.50;;;;;;1562606;75;777;-56
2021/05/26 05:36:56;;;;;;;;;;;22.60;39.30;;;;;;1556563;75;710;-57
2021/05/26 05:38:58;;;;;;;;;;;22.50;39.40;;;;;;1551712;75;711;-56
2021/05/26 05:41:00;;;;;;;;;;;22.50;38.90;;;;;;1548374;75;1102;-57
2021/05/26 05:43:02;;;;;;;;;;;22.60;39.10;;;;;;1547357;75;721;-59
2021/05/26 05:45:04;;;;;;;;;;;22.60;39.10;;;;;;1554422;75;718;-56
2021/05/26 05:47:06;;;;;;;;;;;22.70;39.10;;;;;;1551447;75;785;-59
2021/05/26 05:49:08;;;;;;;;;;;22.70;39.50;;;;;;1546169;75;1945;-60
2021/05/26 05:51:09;;;;;;;;;;;22.60;39.40;;;;;;1550892;75;1149;-60
2021/05/26 05:53:11;;;;;;;;;;;22.60;39.70;;;;;;1538735;75;757;-58
2021/05/26 05:55:14;;;;;;;;;;;22.60;40.20;;;;;;1511659;77;1242;-58
2021/05/26 05:57:16;;;;;;;;;;;22.50;40.10;;;;;;1548417;75;662;-59
2021/05/26 05:59:17;;;;;;;;;;;22.40;40.30;;;;;;1531338;75;815;-59
2021/05/26 06:01:19;;;;;;;;;;;22.40;40.40;;;;;;1547028;76;1123;-57
2021/05/26 06:03:21;;;;;;;;;;;22.50;40.50;;;;;;1545911;75;900;-57
2021/05/26 06:05:23;;;;;;;;;;;22.50;40.20;;;;;;1553559;75;820;-59
2021/05/26 06:07:25;;;;;;;;;;;22.70;39.90;;;;;;1535697;75;826;-58
2021/05/26 06:09:27;;;;;;;;;;;22.80;39.70;;;;;;1542793;75;1960;-59
2021/05/26 06:11:29;;;;;;;;;;;22.90;39.30;;;;;;1550607;75;1100;-59
2021/05/26 06:13:31;;;;;;;;;;;22.90;39.10;;;;;;1544690;75;822;-58
2021/05/26 06:15:32;;;;;;;;;;;22.90;38.60;;;;;;1556981;75;783;-59
2021/05/26 06:17:34;;;;;;;;;;;22.90;38.30;;;;;;1537466;76;749;-58
2021/05/26 06:19:36;;;;;;;;;;;22.90;38.10;;;;;;1546429;75;794;-58
2021/05/26 06:21:38;;;;;;;;;;;22.90;38.10;;;;;;1541707;75;1105;-59
2021/05/26 06:23:40;;;;;;;;;;;22.90;38.10;;;;;;1549756;75;793;-58
2021/05/26 06:25:42;;;;;;;;;;;22.90;38.00;;;;;;1548390;75;724;-57
2021/05/26 06:27:44;;;;;;;;;;;22.90;37.80;;;;;;1548471;75;708;-59
2021/05/26 06:29:45;;;;;;;;;;;22.90;37.70;;;;;;1540567;75;1926;-59
2021/05/26 06:31:47;;;;;;;;;;;23.00;37.40;;;;;;1540818;75;1109;-59
2021/05/26 06:33:49;;;;;;;;;;;23.00;37.20;;;;;;1549212;75;777;-58
2021/05/26 06:35:51;;;;;;;;;;;23.10;37.00;;;;;;1546398;75;764;-59
2021/05/26 06:37:53;;;;;;;;;;;23.00;36.90;;;;;;1545545;75;741;-58
2021/05/26 06:39:55;;;;;;;;;;;23.10;37.10;;;;;;1560535;75;1236;-59
2021/05/26 06:41:57;;;;;;;;;;;23.10;37.10;;;;;;1549700;75;769;-58
2021/05/26 06:43:59;;;;;;;;;;;23.10;37.10;;;;;;1547839;76;707;-59
2021/05/26 06:46:01;;;;;;;;;;;23.10;37.10;;;;;;1548612;76;724;-58
2021/05/26 06:48:03;;;;;;;;;;;23.10;37.00;;;;;;1548742;75;718;-59
2021/05/26 06:50:05;;;;;;;;;;;23.10;37.00;;;;;;1550066;75;1939;-58
2021/05/26 06:52:07;;;;;;;;;;;23.10;37.00;;;;;;1538580;75;738;-58
2021/05/26 06:54:09;;;;;;;;;;;23.10;36.90;;;;;;1544104;75;747;-59
2021/05/26 06:56:11;;;;;;;;;;;23.20;37.00;;;;;;1548179;76;732;-59
2021/05/26 06:58:13;;;;;;;;;;;23.20;36.80;;;;;;1548616;76;687;-57
2021/05/26 07:00:15;;;;;;;;;;;23.20;37.30;;;;;;1545026;75;1165;-58
2021/05/26 07:02:17;;;;;;;;;;;23.20;37.90;;;;;;1544402;75;787;-58
2021/05/26 07:04:19;;;;;;;;;;;23.20;39.30;;;;;;1545079;75;733;-57
2021/05/26 07:06:21;;;;;;;;;;;23.10;39.10;;;;;;1541516;75;657;-58
2021/05/26 07:08:23;;;;;;;;;;;23.20;38.90;;;;;;1542901;75;803;-58
2021/05/26 07:10:24;;;;;;;;;;;23.20;38.80;;;;;;1542490;75;1933;-58
2021/05/26 07:12:26;;;;;;;;;;;23.30;38.60;;;;;;1543834;75;755;-57
2021/05/26 07:14:28;;;;;;;;;;;23.20;38.40;;;;;;1555178;75;700;-58
2021/05/26 07:16:30;;;;;;;;;;;23.20;38.40;;;;;;1542162;75;765;-58
2021/05/26 07:18:33;;;;;;;;;;;23.20;38.20;;;;;;1540815;76;871;-57
2021/05/26 07:20:36;;;;;;;;;;;23.10;38.10;;;;;;1544538;75;1119;-58
2021/05/26 07:22:38;;;;;;;;;;;23.10;38.10;;;;;;1547656;75;674;-56
2021/05/26 07:24:40;;;;;;;;;;;23.10;38.00;;;;;;1547490;75;811;-57
2021/05/26 07:26:42;;;;;;;;;;;23.10;37.90;;;;;;1546288;75;756;-58
2021/05/26 07:28:45;;;;;;;;;;;23.10;37.80;;;;;;1550279;75;771;-58
2021/05/26 07:30:47;;;;;;;;;;;23.00;37.70;;;;;;1550690;75;1899;-56
2021/05/26 07:32:48;;;;;;;;;;;23.10;37.70;;;;;;1527167;75;776;-58
2021/05/26 07:34:50;;;;;;;;;;;23.00;37.60;;;;;;1548610;76;735;-58
2021/05/26 07:36:53;;;;;;;;;;;22.90;37.50;;;;;;1541226;75;773;-58
2021/05/26 07:38:55;;;;;;;;;;;23.00;37.50;;;;;;1546329;75;843;-59
2021/05/26 07:40:57;;;;;;;;;;;22.90;37.40;;;;;;1543560;75;1199;-58
2021/05/26 07:42:58;;;;;;;;;;;22.90;37.40;;;;;;1538120;75;809;-58
2021/05/26 07:45:00;;;;;;;;;;;22.90;37.30;;;;;;1541637;75;761;-58
2021/05/26 07:47:02;;;;;;;;;;;22.90;37.20;;;;;;1544202;75;663;-58
2021/05/26 07:49:05;;;;;;;;;;;22.90;37.20;;;;;;1541929;75;820;-58
2021/05/26 07:51:07;;;;;;;;;;;22.90;37.20;;;;;;1544917;75;1937;-58
2021/05/26 07:53:09;;;;;;;;;;;22.90;37.30;;;;;;1544434;75;853;-58
2021/05/26 07:55:11;;;;;;;;;;;22.90;37.20;;;;;;1547838;75;824;-57
2021/05/26 07:57:13;;;;;;;;;;;22.90;37.10;;;;;;1543913;75;697;-59
2021/05/26 07:59:15;;;;;;;;;;;22.90;37.10;;;;;;1544114;76;750;-57
2021/05/26 08:01:16;;;;;;;;;;;22.90;37.10;;;;;;1549798;75;1189;-56
2021/05/26 08:03:18;;;;;;;;;;;22.90;37.10;;;;;;1540503;75;815;-58
2021/05/26 08:05:22;;;;;;;;;;;22.90;36.90;;;;;;1550051;75;819;-58
2021/05/26 08:07:24;;;;;;;;;;;22.80;36.70;;;;;;1543907;75;718;-58
2021/05/26 08:09:25;;;;;;;;;;;22.80;36.70;;;;;;1543981;75;1960;-57
2021/05/26 08:11:27;;;;;;;;;;;22.80;36.80;;;;;;1545060;75;1115;-57
2021/05/26 08:13:29;;;;;;;;;;;22.80;36.60;;;;;;1543830;75;827;-58
2021/05/26 08:15:31;;;;;;;;;;;22.80;36.70;;;;;;1539580;75;782;-58
2021/05/26 08:17:33;;;;;;;;;;;22.90;36.80;;;;;;1545226;75;777;-59
2021/05/26 08:19:35;;;;;;;;;;;22.80;36.70;;;;;;1541897;75;792;-58
2021/05/26 08:21:38;;;;;;;;;;;22.80;36.70;;;;;;1532175;75;1075;-58
2021/05/26 08:23:40;;;;;;;;;;;22.70;36.80;;;;;;1536021;75;798;-58
2021/05/26 08:25:42;;;;;;;;;;;22.70;36.70;;;;;;1543430;75;767;-57
2021/05/26 08:27:44;;;;;;;;;;;22.80;36.70;;;;;;1546999;75;816;-57
2021/05/26 08:29:46;;;;;;;;;;;22.80;36.70;;;;;;1548190;75;1940;-58
2021/05/26 08:31:48;;;;;;;;;;;22.70;36.60;;;;;;1545360;75;1100;-58
2021/05/26 08:33:50;;;;;;;;;;;22.70;36.60;;;;;;1546192;75;758;-58
2021/05/26 08:35:52;;;;;;;;;;;22.70;36.60;;;;;;1539747;75;815;-58
2021/05/26 08:37:54;;;;;;;;;;;22.80;36.60;;;;;;1542990;75;762;-56
2021/05/26 08:39:56;;;;;;;;;;;22.60;36.50;;;;;;1548925;74;215683;-65
2021/05/26 08:41:58;;;;;;;;;;;22.60;36.50;;;;;;1557434;75;811;-66
2021/05/26 08:44:00;;;;;;;;;;;22.60;36.50;;;;;;1557240;75;906;-65
2021/05/26 08:46:03;;;;;;;;;;;22.60;36.40;;;;;;1552694;75;748;-66
2021/05/26 08:48:05;;;;;;;;;;;22.60;36.10;;;;;;1548373;75;666;-65
2021/05/26 08:50:07;;;;;;;;;;;22.60;35.90;;;;;;1553395;75;1941;-65
2021/05/26 08:52:09;;;;;;;;;;;22.60;35.90;;;;;;1556233;75;742;-65
2021/05/26 08:54:11;;;;;;;;;;;22.60;35.40;;;;;;1556780;75;773;-63
2021/05/26 08:56:13;;;;;;;;;;;22.60;35.20;;;;;;1549616;75;697;-66
2021/05/26 08:58:15;;;;;;;;;;;22.50;35.40;;;;;;1553792;75;1033;-66
2021/05/26 09:00:17;;;;;;;;;;;22.60;35.40;;;;;;1549223;75;1168;-66
2021/05/26 09:02:19;;;;;;;;;;;22.50;35.40;;;;;;1552103;75;697;-66
2021/05/26 09:04:34;;;;;;;;;;;22.50;35.40;;;;;;1549889;75;686;-66
2021/05/26 09:06:42;;;;;;;;;;;22.50;35.50;;;;;;1545319;75;738;-64
2021/05/26 09:08:52;;;;;;;;;;;22.60;35.50;;;;;;1548009;75;1566;-65
2021/05/26 09:11:00;;;;;;;;;;;22.60;35.50;;;;;;1551585;75;1905;-66
2021/05/26 09:13:02;;;;;;;;;;;22.50;35.50;;;;;;1556360;75;776;-66
2021/05/26 09:15:05;;;;;;;;;;;22.50;35.50;;;;;;1553194;75;713;-67
2021/05/26 09:17:10;;;;;;;;;;;22.50;35.50;;;;;;1554571;75;937;-66
2021/05/26 09:19:12;;;;;;;;;;;22.50;35.50;;;;;;1553084;75;1099;-65
2021/05/26 09:21:14;;;;;;;;;;;22.40;35.20;;;;;;1552401;75;833;-66
2021/05/26 09:23:20;;;;;;;;;;;22.50;35.30;;;;;;1554037;75;712;-65
2021/05/26 09:25:22;;;;;;;;;;;22.50;35.40;;;;;;1550974;75;694;-66
2021/05/26 09:27:24;;;;;;;;;;;22.50;35.20;;;;;;1549378;75;797;-68
2021/05/26 09:29:43;;;;;;;;;;;22.50;35.10;;;;;;1551322;75;1176;-65
2021/05/26 09:31:45;;;;;;;;;;;22.50;35.20;;;;;;1551578;75;869;-64
2021/05/26 09:33:51;;;;;;;;;;;22.50;35.10;;;;;;1552360;75;786;-66
2021/05/26 09:35:55;;;;;;;;;;;22.50;35.20;;;;;;1553925;75;1407;-63
2021/05/26 09:37:57;;;;;;;;;;;22.50;35.40;;;;;;1536275;75;1150;-66
2021/05/26 09:40:04;;;;;;;;;;;22.50;35.30;;;;;;1552936;75;1141;-66
2021/05/26 09:42:07;;;;;;;;;;;22.50;35.30;;;;;;1553241;75;716;-66
2021/05/26 09:44:14;;;;;;;;;;;22.40;35.20;;;;;;1540561;75;2003;-65
2021/05/26 09:46:20;;;;;;;;;;;22.50;35.30;;;;;;1541697;75;715;-65
2021/05/26 09:48:22;;;;;;;;;;;22.50;35.30;;;;;;1548573;75;762;-66
2021/05/26 09:50:30;;;;;;;;;;;22.50;35.40;;;;;;1543724;75;1949;-66
2021/05/26 09:52:32;;;;;;;;;;;22.40;35.30;;;;;;1545870;75;722;-67
2021/05/26 09:54:34;;;;;;;;;;;22.50;35.40;;;;;;1543470;75;789;-68
2021/05/26 09:56:36;;;;;;;;;;;22.40;35.40;;;;;;1541107;75;753;-66
2021/05/26 09:58:38;;;;;;;;;;;22.50;35.70;;;;;;1547591;75;759;-68
2021/05/26 10:00:40;;;;;;;;;;;22.50;35.80;;;;;;1546928;75;1009;-68
2021/05/26 10:02:42;;;;;;;;;;;22.60;35.80;;;;;;1546143;75;774;-67
2021/05/26 10:04:45;;;;;;;;;;;22.60;35.90;;;;;;1545858;75;663;-67
2021/05/26 10:06:47;;;;;;;;;;;22.60;36.00;;;;;;1544685;75;703;-67
2021/05/26 10:08:52;;;;;;;;;;;22.60;36.00;;;;;;1548615;75;760;-67
2021/05/26 10:10:55;;;;;;;;;;;22.60;36.00;;;;;;1546763;75;1909;-67
2021/05/26 10:13:00;;;;;;;;;;;22.60;36.00;;;;;;1555776;75;764;-67
2021/05/26 10:15:02;;;;;;;;;;;22.60;36.00;;;;;;1543858;75;726;-67
2021/05/26 10:17:04;;;;;;;;;;;22.50;33.20;;;;;;1548065;75;845;-67
2021/05/26 10:19:06;;;;;;;;;;;22.50;35.00;;;;;;1549017;75;1145;-66
2021/05/26 10:21:08;;;;;;;;;;;22.40;35.40;;;;;;1554936;75;821;-67
2021/05/26 10:23:10;;;;;;;;;;;22.50;35.60;;;;;;1552695;75;782;-67
2021/05/26 10:25:12;;;;;;;;;;;22.40;35.50;;;;;;1505946;77;1379;-69
2021/05/26 10:27:16;;;;;;;;;;;22.50;35.70;;;;;;1543567;75;724;-67
2021/05/26 10:29:33;;;;;;;;;;;22.40;35.60;;;;;;1547382;75;1711;-66
2021/05/26 10:31:38;;;;;;;;;;;22.50;35.70;;;;;;1544539;75;1895;-66
2021/05/26 10:33:44;;;;;;;;;;;22.50;35.70;;;;;;1542821;75;1111;-68
2021/05/26 10:35:57;;;;;;;;;;;22.50;35.70;;;;;;1550015;75;818;-66
2021/05/26 10:38:02;;;;;;;;;;;22.50;35.80;;;;;;1546691;75;2170;-66
2021/05/26 10:40:11;;;;;;;;;;;22.50;35.80;;;;;;1542490;75;1400;-68
2021/05/26 10:42:29;;;;;;;;;;;22.50;35.70;;;;;;1542057;75;1932;-66
2021/05/26 10:44:49;;;;;;;;;;;22.50;35.80;;;;;;1540541;75;817;-67
2021/05/26 10:46:51;;;;;;;;;;;22.50;35.80;;;;;;1542708;75;826;-67
2021/05/26 10:48:53;;;;;;;;;;;22.50;35.90;;;;;;1542579;75;1140;-66
2021/05/26 10:50:55;;;;;;;;;;;22.50;35.90;;;;;;1544288;75;1912;-66
2021/05/26 10:52:59;;;;;;;;;;;22.50;36.00;;;;;;1542146;75;747;-67
2021/05/26 10:55:02;;;;;;;;;;;22.50;35.90;;;;;;1545137;75;996;-66
2021/05/26 10:57:04;;;;;;;;;;;22.50;36.00;;;;;;1546388;75;718;-66
2021/05/26 10:59:10;;;;;;;;;;;22.50;35.90;;;;;;1555365;75;1141;-66
2021/05/26 11:01:12;;;;;;;;;;;22.50;36.00;;;;;;1545483;75;664;-66
2021/05/26 11:03:28;;;;;;;;;;;22.50;36.00;;;;;;1541880;75;688;-67
2021/05/26 11:05:33;;;;;;;;;;;22.50;36.00;;;;;;1539851;75;740;-66
2021/05/26 11:07:36;;;;;;;;;;;22.50;36.00;;;;;;1542653;75;746;-65
2021/05/26 11:09:53;;;;;;;;;;;22.50;36.00;;;;;;1542816;75;1155;-66
2021/05/26 11:11:55;;;;;;;;;;;22.50;36.00;;;;;;1541163;75;1927;-66
2021/05/26 11:14:05;;;;;;;;;;;22.50;36.00;;;;;;1506769;77;1090;-65
2021/05/26 11:16:06;;;;;;;;;;;22.50;36.00;;;;;;1542098;75;790;-65
2021/05/26 11:18:09;;;;;;;;;;;22.40;35.90;;;;;;1547693;75;811;-67
2021/05/26 11:20:12;;;;;;;;;;;22.50;35.90;;;;;;1540972;75;1145;-66
2021/05/26 11:22:15;;;;;;;;;;;22.50;36.00;;;;;;1542935;75;800;-65
2021/05/26 11:24:17;;;;;;;;;;;22.50;36.00;;;;;;1543698;75;741;-68
2021/05/26 11:26:20;;;;;;;;;;;22.40;36.00;;;;;;1545884;75;708;-67
2021/05/26 11:28:31;;;;;;;;;;;22.50;36.10;;;;;;1551592;75;763;-67
2021/05/26 11:30:33;;;;;;;;;;;22.40;36.00;;;;;;1548149;74;1956;-67
2021/05/26 11:32:35;;;;;;;;;;;22.50;36.10;;;;;;1549964;75;826;-67
2021/05/26 11:34:37;;;;;;;;;;;22.50;36.10;;;;;;1554023;75;719;-67
2021/05/26 11:36:42;;;;;;;;;;;22.50;36.10;;;;;;1542524;75;753;-68
2021/05/26 11:38:46;;;;;;;;;;;22.50;36.20;;;;;;1550214;75;805;-66
2021/05/26 11:40:48;;;;;;;;;;;22.50;36.30;;;;;;1540385;75;1085;-70
2021/05/26 11:42:50;;;;;;;;;;;22.60;36.30;;;;;;1545123;75;701;-67
2021/05/26 11:45:01;;;;;;;;;;;22.60;36.40;;;;;;1548668;75;740;-68
2021/05/26 11:47:03;;;;;;;;;;;22.50;36.50;;;;;;1541061;75;761;-67
2021/05/26 11:49:11;;;;;;;;;;;22.60;37.00;;;;;;1541315;75;1137;-67
2021/05/26 11:51:15;;;;;;;;;;;22.60;37.10;;;;;;1542657;75;1932;-67
2021/05/26 11:53:17;;;;;;;;;;;22.60;37.40;;;;;;1541514;75;1993;-67
2021/05/26 11:55:22;;;;;;;;;;;22.60;37.50;;;;;;1542507;75;691;-65
2021/05/26 11:57:33;;;;;;;;;;;22.60;37.60;;;;;;1555022;75;799;-65
2021/05/26 11:59:35;;;;;;;;;;;22.60;37.60;;;;;;1542406;75;1158;-65
2021/05/26 12:01:37;;;;;;;;;;;22.60;37.70;;;;;;1543643;75;820;-64
2021/05/26 12:03:39;;;;;;;;;;;22.60;37.80;;;;;;1552200;75;692;-64
2021/05/26 12:05:46;;;;;;;;;;;22.60;37.80;;;;;;1545817;75;805;-66
2021/05/26 12:07:48;;;;;;;;;;;22.70;37.90;;;;;;1546400;75;729;-67
2021/05/26 12:09:56;;;;;;;;;;;22.60;37.80;;;;;;1555413;74;1132;-67
2021/05/26 12:11:58;;;;;;;;;;;22.60;37.80;;;;;;1552645;75;1931;-67
2021/05/26 12:14:00;;;;;;;;;;;22.70;38.00;;;;;;1547786;75;779;-67